Strona główna
METAR-TAF:

METAR-TAF

Lotnisko :

Port lotniczy Pakxe

Pakxe, Laos

Szerokość geograficzna: 15-08-02N, Długość geograficzna: 105-46-55E, wysokość: 107 m

Aktualna obserwacja pogody

Raport powstał 9 godziny i 53 minut temu, godzina 12:00 UTC
Wiatr 2 kt od południowy wschód
Temperatura 32°C
Wilgotność 59%
Ciśnienie 1010 hPa
Widzialność 10 km lub więcej
Mało chmury na wysokości 2000 ft
Rozproszone chmury na wysokości 20000 ft

METAR: VLPS 301200Z 14002KT 9999 FEW020 SCT200 32/23 Q1010 NOSIG

czas: 04:53 (21:53 UTC)

Prognoza

Raport powstał 10 godziny i 53 minut temu, godzina 11:00 UTC
Prognoza ważna od 30 godzina 12 UTC do 31 godzina 12 UTC
Wiatr 4 kt od południowy zachód
Widzialność 10 km lub więcej
Rozproszone chmury na wysokości 2000 ft
Mało chmury na wysokości 20000 ft

TAF: VLPS 301100Z 3012/3112 22004KT 9999 SCT020 FEW200

Obserwacja i prognoza pogody dla ponad 4000 lotnisk (raport METAR i TAF).

Dostępne stacje oznaczono żółtymi i czerwonymi punktami na mapie.

Najedź kursorem aby zobaczyć nazwę stacji.

Kliknij aby zobaczyć obserwacje i prognozy pogody.

Aby zmienić mapę: kliknij na zielony przycisk z czarnym krzyżykiem, aby powiększyć; na zielony przycisk z myślnikiem, aby pomniejszyć; na zielone strzałki, aby przejść do map sąsiednich.


METAR-TAF: